This is the latest recevied weather packets stored in our database for station/object WAYLND-WX. If no packets are shown the sender has not sent any weather packets the latest 10 day(s).
| Time | Temp. | Humidity | Pressure | Rain* | Wind** | Luminosity | Snow |
|---|---|---|---|---|---|---|---|
| 1777761942 | 8.33° C | 39% | 989.7 hPa | 0 mm | - | - | - |
| 1777761060 | 8.33° C | 38% | 990.6 hPa | 0 mm | - | - | - |
| 1777760143 | 8.33° C | 38% | 990.5 hPa | 0 mm | - | - | - |
| 1777759269 | 8.33° C | 38% | 990.5 hPa | 0 mm | - | - | - |
| 1777758342 | 8.33° C | 41% | 990.6 hPa | 0 mm | - | - | - |
| 1777757460 | 8.33° C | 42% | 990.3 hPa | 0 mm | - | - | - |
| 1777756542 | 8.33° C | 42% | 990.3 hPa | 0 mm | - | - | - |
| 1777753860 | 8.33° C | 40% | 991.2 hPa | 0 mm | - | - | - |
| 1777752942 | 8.33° C | 40% | 991.1 hPa | 0 mm | - | - | - |
| 1777752068 | 8.33° C | 40% | 991.1 hPa | 0 mm | - | - | - |
| 1777751142 | 8.33° C | 34% | 991.3 hPa | 0 mm | - | - | - |
| 1777750255 | 8.33° C | 34% | 991.3 hPa | 0 mm | - | - | - |
| 1777749342 | 8.89° C | 34% | 991.3 hPa | 0 mm | - | - | - |
| 1777747542 | 8.33° C | 41% | 991.2 hPa | 0 mm | - | - | - |
| 1777745741 | 8.33° C | 44% | 991.3 hPa | 0 mm | - | - | - |
| 1777744874 | 7.78° C | 44% | 991.3 hPa | 0 mm | - | - | - |
| 1777743942 | 7.78° C | 46% | 991.8 hPa | 0 mm | - | - | - |
| 1777743059 | 7.78° C | 43% | 991.7 hPa | 0 mm | - | - | - |
| 1777739462 | 7.78° C | 44% | 990.8 hPa | 0 mm | - | - | - |
| 1777736742 | 6.67° C | 48% | 990.8 hPa | 0 mm | - | - | - |
| 1777735859 | 6.11° C | 52% | 990.9 hPa | 0 mm | - | - | - |
| 1777734942 | 6.11° C | 52% | 990.9 hPa | 0 mm | - | - | - |
| 1777734074 | 5.56° C | 52% | 990.9 hPa | 0 mm | - | - | - |
| 1777733142 | 5.56° C | 55% | 991.2 hPa | 0 mm | - | - | - |
| 1777732257 | 5° C | 61% | 991.7 hPa | 0 mm | - | - | - |
* Rain latest hour (hover to see other rain measurements)
** Current wind speed in m/s (hover to see current wind gust speed)